sensor_id;sensor_type;location;lat;lon;timestamp;pressure;altitude;pressure_sealevel;temperature;humidity
55540;BME280;41384;51.418;7.286;2023-04-21T00:02:02;99707.59;;;8.74;100.00
55540;BME280;41384;51.418;7.286;2023-04-21T00:04:28;99704.97;;;8.67;100.00
55540;BME280;41384;51.418;7.286;2023-04-21T00:06:53;99704.13;;;8.67;100.00
55540;BME280;41384;51.418;7.286;2023-04-21T00:09:20;99708.78;;;8.65;100.00
55540;BME280;41384;51.418;7.286;2023-04-21T00:11:45;99706.13;;;8.58;100.00
55540;BME280;41384;51.418;7.286;2023-04-21T00:14:11;99704.91;;;8.54;100.00
55540;BME280;41384;51.418;7.286;2023-04-21T00:16:36;99711.44;;;8.71;100.00
55540;BME280;41384;51.418;7.286;2023-04-21T00:19:01;99703.16;;;8.74;100.00
55540;BME280;41384;51.418;7.286;2023-04-21T00:21:31;99698.88;;;8.67;100.00
55540;BME280;41384;51.418;7.286;2023-04-21T00:23:56;99697.47;;;8.71;100.00
55540;BME280;41384;51.418;7.286;2023-04-21T00:26:21;99697.84;;;8.61;100.00
55540;BME280;41384;51.418;7.286;2023-04-21T00:28:46;99691.97;;;8.66;100.00
55540;BME280;41384;51.418;7.286;2023-04-21T00:31:12;99687.94;;;8.70;100.00
55540;BME280;41384;51.418;7.286;2023-04-21T00:33:37;99684.34;;;8.78;100.00
55540;BME280;41384;51.418;7.286;2023-04-21T00:36:02;99679.72;;;8.86;100.00
55540;BME280;41384;51.418;7.286;2023-04-21T00:38:28;99682.53;;;8.85;100.00
55540;BME280;41384;51.418;7.286;2023-04-21T00:40:53;99680.75;;;8.85;100.00
55540;BME280;41384;51.418;7.286;2023-04-21T00:43:18;99679.88;;;8.78;100.00
55540;BME280;41384;51.418;7.286;2023-04-21T00:45:44;99673.81;;;8.78;100.00
55540;BME280;41384;51.418;7.286;2023-04-21T00:48:11;99674.00;;;8.76;100.00
55540;BME280;41384;51.418;7.286;2023-04-21T00:50:36;99676.44;;;8.78;100.00
55540;BME280;41384;51.418;7.286;2023-04-21T00:53:01;99674.44;;;8.80;100.00
55540;BME280;41384;51.418;7.286;2023-04-21T00:55:27;99671.38;;;8.69;100.00
55540;BME280;41384;51.418;7.286;2023-04-21T00:57:53;99676.88;;;8.88;100.00
55540;BME280;41384;51.418;7.286;2023-04-21T01:00:23;99676.03;;;8.74;100.00
55540;BME280;41384;51.418;7.286;2023-04-21T01:02:48;99673.00;;;8.70;100.00
55540;BME280;41384;51.418;7.286;2023-04-21T01:05:14;99670.16;;;8.72;100.00
55540;BME280;41384;51.418;7.286;2023-04-21T01:07:40;99679.09;;;8.78;100.00
55540;BME280;41384;51.418;7.286;2023-04-21T01:10:06;99666.72;;;8.71;100.00
55540;BME280;41384;51.418;7.286;2023-04-21T01:12:32;99678.03;;;8.72;100.00
55540;BME280;41384;51.418;7.286;2023-04-21T01:14:57;99676.25;;;8.72;100.00
55540;BME280;41384;51.418;7.286;2023-04-21T01:17:22;99676.06;;;8.81;100.00
55540;BME280;41384;51.418;7.286;2023-04-21T01:19:49;99662.84;;;8.67;100.00
55540;BME280;41384;51.418;7.286;2023-04-21T01:22:15;99666.06;;;8.63;100.00
55540;BME280;41384;51.418;7.286;2023-04-21T01:24:46;99650.13;;;8.78;100.00
55540;BME280;41384;51.418;7.286;2023-04-21T01:27:18;99650.31;;;8.76;100.00
55540;BME280;41384;51.418;7.286;2023-04-21T01:29:47;99647.94;;;8.88;100.00
55540;BME280;41384;51.418;7.286;2023-04-21T01:32:18;99645.66;;;8.71;100.00
55540;BME280;41384;51.418;7.286;2023-04-21T01:34:44;99638.19;;;8.82;100.00
55540;BME280;41384;51.418;7.286;2023-04-21T01:37:11;99654.78;;;8.75;100.00
55540;BME280;41384;51.418;7.286;2023-04-21T01:39:38;99657.84;;;8.86;100.00
55540;BME280;41384;51.418;7.286;2023-04-21T01:42:04;99649.91;;;8.72;100.00
55540;BME280;41384;51.418;7.286;2023-04-21T01:44:31;99641.41;;;8.77;100.00
55540;BME280;41384;51.418;7.286;2023-04-21T01:46:56;99660.84;;;8.69;100.00
55540;BME280;41384;51.418;7.286;2023-04-21T01:49:21;99661.41;;;8.58;100.00
55540;BME280;41384;51.418;7.286;2023-04-21T01:51:46;99673.53;;;8.52;100.00
55540;BME280;41384;51.418;7.286;2023-04-21T01:54:12;99658.50;;;8.46;100.00
55540;BME280;41384;51.418;7.286;2023-04-21T01:56:37;99658.78;;;8.65;100.00
55540;BME280;41384;51.418;7.286;2023-04-21T01:59:03;99654.13;;;8.60;100.00
55540;BME280;41384;51.418;7.286;2023-04-21T02:01:28;99651.13;;;8.70;100.00
55540;BME280;41384;51.418;7.286;2023-04-21T02:03:54;99648.25;;;8.65;100.00
55540;BME280;41384;51.418;7.286;2023-04-21T02:06:19;99650.72;;;8.66;100.00
55540;BME280;41384;51.418;7.286;2023-04-21T02:08:44;99639.78;;;8.76;100.00
55540;BME280;41384;51.418;7.286;2023-04-21T02:11:09;99651.16;;;8.83;100.00
55540;BME280;41384;51.418;7.286;2023-04-21T02:13:35;99649.56;;;8.89;100.00
55540;BME280;41384;51.418;7.286;2023-04-21T02:16:00;99652.78;;;8.91;100.00
55540;BME280;41384;51.418;7.286;2023-04-21T02:18:25;99640.88;;;8.88;100.00
55540;BME280;41384;51.418;7.286;2023-04-21T02:20:53;99637.84;;;8.92;100.00
55540;BME280;41384;51.418;7.286;2023-04-21T02:23:20;99651.16;;;8.76;100.00
55540;BME280;41384;51.418;7.286;2023-04-21T02:25:45;99631.91;;;8.69;100.00
55540;BME280;41384;51.418;7.286;2023-04-21T02:28:10;99628.66;;;8.67;100.00
55540;BME280;41384;51.418;7.286;2023-04-21T02:30:35;99636.13;;;8.64;100.00
55540;BME280;41384;51.418;7.286;2023-04-21T02:33:01;99631.69;;;8.64;100.00
55540;BME280;41384;51.418;7.286;2023-04-21T02:35:26;99639.78;;;8.69;100.00
55540;BME280;41384;51.418;7.286;2023-04-21T02:37:51;99632.47;;;8.65;100.00
55540;BME280;41384;51.418;7.286;2023-04-21T02:40:17;99633.31;;;8.72;100.00
55540;BME280;41384;51.418;7.286;2023-04-21T02:42:42;99638.75;;;8.64;100.00
55540;BME280;41384;51.418;7.286;2023-04-21T02:45:08;99640.19;;;8.73;100.00
55540;BME280;41384;51.418;7.286;2023-04-21T02:47:33;99630.09;;;8.76;100.00
55540;BME280;41384;51.418;7.286;2023-04-21T02:49:59;99636.28;;;8.55;100.00
55540;BME280;41384;51.418;7.286;2023-04-21T02:52:24;99636.53;;;8.67;100.00
55540;BME280;41384;51.418;7.286;2023-04-21T02:54:49;99630.16;;;8.41;100.00
55540;BME280;41384;51.418;7.286;2023-04-21T02:57:14;99628.84;;;8.59;100.00
55540;BME280;41384;51.418;7.286;2023-04-21T02:59:40;99637.34;;;8.61;100.00
55540;BME280;41384;51.418;7.286;2023-04-21T03:02:05;99639.53;;;8.51;100.00
55540;BME280;41384;51.418;7.286;2023-04-21T03:04:30;99646.25;;;8.60;100.00
55540;BME280;41384;51.418;7.286;2023-04-21T03:06:56;99641.47;;;8.42;100.00
55540;BME280;41384;51.418;7.286;2023-04-21T03:09:21;99647.78;;;8.47;100.00
55540;BME280;41384;51.418;7.286;2023-04-21T03:11:47;99654.84;;;8.47;100.00
55540;BME280;41384;51.418;7.286;2023-04-21T03:14:12;99644.94;;;8.42;100.00
55540;BME280;41384;51.418;7.286;2023-04-21T03:16:37;99649.97;;;8.44;100.00
55540;BME280;41384;51.418;7.286;2023-04-21T03:19:03;99648.13;;;8.38;100.00
55540;BME280;41384;51.418;7.286;2023-04-21T03:21:28;99647.41;;;8.51;100.00
55540;BME280;41384;51.418;7.286;2023-04-21T03:23:53;99654.31;;;8.52;100.00
55540;BME280;41384;51.418;7.286;2023-04-21T03:26:18;99655.69;;;8.47;100.00
55540;BME280;41384;51.418;7.286;2023-04-21T03:28:44;99641.34;;;8.50;100.00
55540;BME280;41384;51.418;7.286;2023-04-21T03:31:09;99641.38;;;8.57;100.00
55540;BME280;41384;51.418;7.286;2023-04-21T03:33:35;99643.69;;;8.38;100.00
55540;BME280;41384;51.418;7.286;2023-04-21T03:36:00;99634.81;;;8.46;100.00
55540;BME280;41384;51.418;7.286;2023-04-21T03:38:27;99639.72;;;8.49;100.00
55540;BME280;41384;51.418;7.286;2023-04-21T03:40:53;99638.63;;;8.37;100.00
55540;BME280;41384;51.418;7.286;2023-04-21T03:43:18;99640.41;;;8.29;100.00
55540;BME280;41384;51.418;7.286;2023-04-21T03:45:43;99646.94;;;8.40;100.00
55540;BME280;41384;51.418;7.286;2023-04-21T03:48:08;99644.69;;;8.37;100.00
55540;BME280;41384;51.418;7.286;2023-04-21T03:50:34;99647.31;;;8.37;100.00
55540;BME280;41384;51.418;7.286;2023-04-21T03:52:59;99648.44;;;8.50;100.00
55540;BME280;41384;51.418;7.286;2023-04-21T03:55:24;99649.31;;;8.28;100.00
55540;BME280;41384;51.418;7.286;2023-04-21T03:57:50;99636.34;;;8.27;100.00
55540;BME280;41384;51.418;7.286;2023-04-21T04:00:15;99637.78;;;8.29;100.00
55540;BME280;41384;51.418;7.286;2023-04-21T04:02:40;99644.22;;;8.20;100.00
55540;BME280;41384;51.418;7.286;2023-04-21T04:05:06;99643.00;;;8.23;100.00
55540;BME280;41384;51.418;7.286;2023-04-21T04:07:32;99632.72;;;8.28;100.00
55540;BME280;41384;51.418;7.286;2023-04-21T04:09:57;99644.78;;;8.15;100.00
55540;BME280;41384;51.418;7.286;2023-04-21T04:12:23;99642.81;;;8.24;100.00
55540;BME280;41384;51.418;7.286;2023-04-21T04:14:48;99640.63;;;8.35;100.00
55540;BME280;41384;51.418;7.286;2023-04-21T04:17:13;99630.16;;;8.41;100.00
55540;BME280;41384;51.418;7.286;2023-04-21T04:19:38;99631.56;;;8.44;100.00
55540;BME280;41384;51.418;7.286;2023-04-21T04:22:04;99633.00;;;8.46;100.00
55540;BME280;41384;51.418;7.286;2023-04-21T04:24:31;99619.59;;;8.35;100.00
55540;BME280;41384;51.418;7.286;2023-04-21T04:26:57;99625.91;;;8.40;100.00
55540;BME280;41384;51.418;7.286;2023-04-21T04:29:24;99623.19;;;8.20;100.00
55540;BME280;41384;51.418;7.286;2023-04-21T04:31:49;99627.84;;;8.25;100.00
55540;BME280;41384;51.418;7.286;2023-04-21T04:34:16;99634.88;;;8.17;100.00
55540;BME280;41384;51.418;7.286;2023-04-21T04:36:41;99640.44;;;8.36;100.00
55540;BME280;41384;51.418;7.286;2023-04-21T04:39:07;99634.94;;;8.31;100.00
55540;BME280;41384;51.418;7.286;2023-04-21T04:41:34;99624.59;;;8.16;100.00
55540;BME280;41384;51.418;7.286;2023-04-21T04:44:00;99637.28;;;8.12;100.00
55540;BME280;41384;51.418;7.286;2023-04-21T04:46:30;99632.81;;;8.06;100.00
55540;BME280;41384;51.418;7.286;2023-04-21T04:48:55;99631.41;;;8.10;100.00
55540;BME280;41384;51.418;7.286;2023-04-21T04:51:20;99636.34;;;8.20;100.00
55540;BME280;41384;51.418;7.286;2023-04-21T04:53:47;99646.84;;;8.20;100.00
55540;BME280;41384;51.418;7.286;2023-04-21T04:56:12;99640.47;;;8.01;100.00
55540;BME280;41384;51.418;7.286;2023-04-21T04:58:37;99645.78;;;8.08;100.00
55540;BME280;41384;51.418;7.286;2023-04-21T05:01:13;99639.53;;;8.15;100.00
55540;BME280;41384;51.418;7.286;2023-04-21T05:03:39;99647.97;;;8.04;100.00
55540;BME280;41384;51.418;7.286;2023-04-21T05:06:05;99641.94;;;8.10;100.00
55540;BME280;41384;51.418;7.286;2023-04-21T05:08:30;99639.13;;;8.18;100.00
55540;BME280;41384;51.418;7.286;2023-04-21T05:10:55;99633.88;;;8.18;100.00
55540;BME280;41384;51.418;7.286;2023-04-21T05:13:21;99638.34;;;8.25;100.00
55540;BME280;41384;51.418;7.286;2023-04-21T05:15:46;99636.16;;;8.28;100.00
55540;BME280;41384;51.418;7.286;2023-04-21T05:18:11;99640.13;;;8.11;100.00
55540;BME280;41384;51.418;7.286;2023-04-21T05:20:40;99633.47;;;8.15;100.00
55540;BME280;41384;51.418;7.286;2023-04-21T05:23:05;99632.31;;;8.24;100.00
55540;BME280;41384;51.418;7.286;2023-04-21T05:25:30;99635.94;;;8.30;100.00
55540;BME280;41384;51.418;7.286;2023-04-21T05:27:56;99645.78;;;8.14;100.00
55540;BME280;41384;51.418;7.286;2023-04-21T05:30:21;99640.16;;;8.17;100.00
55540;BME280;41384;51.418;7.286;2023-04-21T05:32:46;99639.38;;;8.24;100.00
55540;BME280;41384;51.418;7.286;2023-04-21T05:35:11;99642.13;;;8.09;100.00
55540;BME280;41384;51.418;7.286;2023-04-21T05:37:36;99644.38;;;8.12;100.00
55540;BME280;41384;51.418;7.286;2023-04-21T05:40:02;99649.78;;;8.03;100.00
55540;BME280;41384;51.418;7.286;2023-04-21T05:42:27;99656.09;;;8.09;100.00
55540;BME280;41384;51.418;7.286;2023-04-21T05:44:52;99657.19;;;8.28;100.00
55540;BME280;41384;51.418;7.286;2023-04-21T05:47:19;99656.81;;;8.31;100.00
55540;BME280;41384;51.418;7.286;2023-04-21T05:49:44;99662.19;;;8.16;100.00
55540;BME280;41384;51.418;7.286;2023-04-21T05:52:14;99656.97;;;8.23;100.00
55540;BME280;41384;51.418;7.286;2023-04-21T05:54:39;99658.38;;;8.19;100.00
55540;BME280;41384;51.418;7.286;2023-04-21T05:57:05;99662.91;;;8.39;100.00
55540;BME280;41384;51.418;7.286;2023-04-21T05:59:32;99661.38;;;8.51;100.00
55540;BME280;41384;51.418;7.286;2023-04-21T06:01:57;99667.22;;;8.46;100.00
55540;BME280;41384;51.418;7.286;2023-04-21T06:04:23;99657.38;;;8.62;100.00
55540;BME280;41384;51.418;7.286;2023-04-21T06:06:48;99662.22;;;8.58;100.00
55540;BME280;41384;51.418;7.286;2023-04-21T06:09:13;99656.13;;;8.51;100.00
55540;BME280;41384;51.418;7.286;2023-04-21T06:11:40;99656.59;;;8.68;100.00
55540;BME280;41384;51.418;7.286;2023-04-21T06:14:05;99650.56;;;8.88;100.00
55540;BME280;41384;51.418;7.286;2023-04-21T06:16:30;99641.47;;;8.97;100.00
55540;BME280;41384;51.418;7.286;2023-04-21T06:18:58;99642.88;;;8.86;100.00
55540;BME280;41384;51.418;7.286;2023-04-21T06:21:23;99638.63;;;8.85;100.00
55540;BME280;41384;51.418;7.286;2023-04-21T06:23:48;99631.50;;;8.79;100.00
55540;BME280;41384;51.418;7.286;2023-04-21T06:26:14;99630.94;;;8.97;100.00
55540;BME280;41384;51.418;7.286;2023-04-21T06:28:39;99641.31;;;9.12;100.00
55540;BME280;41384;51.418;7.286;2023-04-21T06:31:05;99630.16;;;9.24;100.00
55540;BME280;41384;51.418;7.286;2023-04-21T06:33:31;99625.09;;;9.22;100.00
55540;BME280;41384;51.418;7.286;2023-04-21T06:35:56;99634.00;;;9.21;100.00
55540;BME280;41384;51.418;7.286;2023-04-21T06:38:21;99638.25;;;9.09;100.00
55540;BME280;41384;51.418;7.286;2023-04-21T06:40:47;99630.75;;;9.19;100.00
55540;BME280;41384;51.418;7.286;2023-04-21T06:43:12;99638.28;;;9.42;100.00
55540;BME280;41384;51.418;7.286;2023-04-21T06:45:38;99637.47;;;9.48;100.00
55540;BME280;41384;51.418;7.286;2023-04-21T06:48:03;99649.00;;;9.61;100.00
55540;BME280;41384;51.418;7.286;2023-04-21T06:50:28;99645.75;;;9.59;100.00
55540;BME280;41384;51.418;7.286;2023-04-21T06:52:54;99642.13;;;9.53;100.00
55540;BME280;41384;51.418;7.286;2023-04-21T06:55:19;99644.97;;;9.58;100.00
55540;BME280;41384;51.418;7.286;2023-04-21T06:57:44;99643.13;;;9.66;100.00
55540;BME280;41384;51.418;7.286;2023-04-21T07:00:10;99653.25;;;9.82;100.00
55540;BME280;41384;51.418;7.286;2023-04-21T07:02:36;99644.72;;;9.80;100.00
55540;BME280;41384;51.418;7.286;2023-04-21T07:05:01;99647.75;;;9.97;100.00
55540;BME280;41384;51.418;7.286;2023-04-21T07:07:26;99642.88;;;10.01;100.00
55540;BME280;41384;51.418;7.286;2023-04-21T07:09:52;99642.69;;;9.96;100.00
55540;BME280;41384;51.418;7.286;2023-04-21T07:12:17;99636.16;;;10.05;100.00
55540;BME280;41384;51.418;7.286;2023-04-21T07:14:42;99636.34;;;10.10;100.00
55540;BME280;41384;51.418;7.286;2023-04-21T07:17:08;99628.00;;;10.20;100.00
55540;BME280;41384;51.418;7.286;2023-04-21T07:19:33;99630.03;;;10.25;100.00
55540;BME280;41384;51.418;7.286;2023-04-21T07:21:58;99628.38;;;10.30;100.00
55540;BME280;41384;51.418;7.286;2023-04-21T07:24:23;99623.69;;;10.39;100.00
55540;BME280;41384;51.418;7.286;2023-04-21T07:26:49;99622.88;;;10.39;100.00
55540;BME280;41384;51.418;7.286;2023-04-21T07:29:14;99624.31;;;10.34;100.00
55540;BME280;41384;51.418;7.286;2023-04-21T07:31:39;99630.41;;;10.35;100.00
55540;BME280;41384;51.418;7.286;2023-04-21T07:34:05;99634.66;;;10.36;100.00
55540;BME280;41384;51.418;7.286;2023-04-21T07:36:30;99629.78;;;10.46;100.00
55540;BME280;41384;51.418;7.286;2023-04-21T07:38:55;99638.91;;;10.37;100.00
55540;BME280;41384;51.418;7.286;2023-04-21T07:41:21;99628.34;;;10.50;100.00
55540;BME280;41384;51.418;7.286;2023-04-21T07:43:46;99628.09;;;10.52;100.00
55540;BME280;41384;51.418;7.286;2023-04-21T07:46:12;99623.00;;;10.57;100.00
55540;BME280;41384;51.418;7.286;2023-04-21T07:48:38;99614.75;;;10.47;100.00
55540;BME280;41384;51.418;7.286;2023-04-21T07:51:04;99610.28;;;10.47;100.00
55540;BME280;41384;51.418;7.286;2023-04-21T07:53:29;99614.72;;;10.54;100.00
55540;BME280;41384;51.418;7.286;2023-04-21T07:55:55;99621.63;;;10.55;100.00
55540;BME280;41384;51.418;7.286;2023-04-21T07:58:21;99629.78;;;10.46;100.00
55540;BME280;41384;51.418;7.286;2023-04-21T08:00:46;99623.50;;;10.41;100.00
55540;BME280;41384;51.418;7.286;2023-04-21T08:03:12;99624.31;;;10.34;100.00
55540;BME280;41384;51.418;7.286;2023-04-21T08:05:37;99618.19;;;10.47;100.00
55540;BME280;41384;51.418;7.286;2023-04-21T08:08:02;99614.91;;;10.59;100.00
55540;BME280;41384;51.418;7.286;2023-04-21T08:10:28;99616.09;;;10.56;100.00
55540;BME280;41384;51.418;7.286;2023-04-21T08:12:53;99618.75;;;10.56;100.00
55540;BME280;41384;51.418;7.286;2023-04-21T08:15:18;99626.66;;;10.63;100.00
55540;BME280;41384;51.418;7.286;2023-04-21T08:17:44;99626.81;;;10.68;100.00
55540;BME280;41384;51.418;7.286;2023-04-21T08:20:10;99625.78;;;10.76;100.00
55540;BME280;41384;51.418;7.286;2023-04-21T08:22:35;99626.41;;;11.03;100.00
55540;BME280;41384;51.418;7.286;2023-04-21T08:25:02;99625.56;;;11.09;100.00
55540;BME280;41384;51.418;7.286;2023-04-21T08:27:27;99632.38;;;11.24;100.00
55540;BME280;41384;51.418;7.286;2023-04-21T08:29:53;99627.84;;;11.31;100.00
55540;BME280;41384;51.418;7.286;2023-04-21T08:32:18;99631.78;;;11.22;100.00
55540;BME280;41384;51.418;7.286;2023-04-21T08:34:48;99629.03;;;11.35;100.00
55540;BME280;41384;51.418;7.286;2023-04-21T08:37:14;99640.13;;;11.44;100.00
55540;BME280;41384;51.418;7.286;2023-04-21T08:39:39;99636.88;;;11.42;100.00
55540;BME280;41384;51.418;7.286;2023-04-21T08:42:07;99640.72;;;11.46;100.00
55540;BME280;41384;51.418;7.286;2023-04-21T08:44:32;99641.53;;;11.47;100.00
55540;BME280;41384;51.418;7.286;2023-04-21T08:46:58;99633.19;;;11.50;100.00
55540;BME280;41384;51.418;7.286;2023-04-21T08:49:28;99631.13;;;11.52;100.00
55540;BME280;41384;51.418;7.286;2023-04-21T08:51:53;99637.38;;;11.58;100.00
55540;BME280;41384;51.418;7.286;2023-04-21T08:54:19;99636.13;;;11.60;100.00
55540;BME280;41384;51.418;7.286;2023-04-21T08:56:46;99637.16;;;11.59;100.00
55540;BME280;41384;51.418;7.286;2023-04-21T08:59:11;99644.28;;;11.59;100.00
55540;BME280;41384;51.418;7.286;2023-04-21T09:04:30;99637.88;;;11.48;100.00
55540;BME280;41384;51.418;7.286;2023-04-21T09:06:56;99640.13;;;11.70;100.00
55540;BME280;41384;51.418;7.286;2023-04-21T09:09:21;99643.50;;;11.77;100.00
55540;BME280;41384;51.418;7.286;2023-04-21T09:11:54;99635.72;;;11.82;100.00
55540;BME280;41384;51.418;7.286;2023-04-21T09:14:21;99635.66;;;11.89;100.00
55540;BME280;41384;51.418;7.286;2023-04-21T09:16:58;99626.72;;;11.90;100.00
55540;BME280;41384;51.418;7.286;2023-04-21T09:19:26;99628.09;;;11.92;100.00
55540;BME280;41384;51.418;7.286;2023-04-21T09:21:52;99624.72;;;11.85;100.00
55540;BME280;41384;51.418;7.286;2023-04-21T09:24:17;99624.13;;;11.83;100.00
55540;BME280;41384;51.418;7.286;2023-04-21T09:26:44;99620.88;;;11.81;100.00
55540;BME280;41384;51.418;7.286;2023-04-21T09:29:13;99632.88;;;11.83;100.00
55540;BME280;41384;51.418;7.286;2023-04-21T09:31:39;99627.34;;;11.85;100.00
55540;BME280;41384;51.418;7.286;2023-04-21T09:34:16;99636.00;;;11.74;100.00
55540;BME280;41384;51.418;7.286;2023-04-21T09:36:42;99632.53;;;11.55;100.00
55540;BME280;41384;51.418;7.286;2023-04-21T09:39:09;99633.19;;;11.50;100.00
55540;BME280;41384;51.418;7.286;2023-04-21T09:41:34;99642.72;;;11.51;100.00
55540;BME280;41384;51.418;7.286;2023-04-21T09:43:59;99636.28;;;11.40;100.00
55540;BME280;41384;51.418;7.286;2023-04-21T09:46:28;99630.66;;;11.36;100.00
55540;BME280;41384;51.418;7.286;2023-04-21T09:48:54;99634.19;;;11.49;100.00
55540;BME280;41384;51.418;7.286;2023-04-21T09:51:23;99632.38;;;11.49;100.00
55540;BME280;41384;51.418;7.286;2023-04-21T09:53:52;99628.47;;;11.52;100.00
55540;BME280;41384;51.418;7.286;2023-04-21T09:56:20;99625.84;;;11.52;100.00
55540;BME280;41384;51.418;7.286;2023-04-21T09:58:50;99617.31;;;11.50;100.00
55540;BME280;41384;51.418;7.286;2023-04-21T10:01:16;99625.41;;;11.55;100.00
55540;BME280;41384;51.418;7.286;2023-04-21T10:03:42;99616.13;;;11.46;100.00
55540;BME280;41384;51.418;7.286;2023-04-21T10:06:10;99615.25;;;11.52;100.00
55540;BME280;41384;51.418;7.286;2023-04-21T10:08:36;99609.88;;;11.40;100.00
55540;BME280;41384;51.418;7.286;2023-04-21T10:11:02;99604.38;;;11.42;100.00
55540;BME280;41384;51.418;7.286;2023-04-21T10:13:29;99601.06;;;11.46;100.00
55540;BME280;41384;51.418;7.286;2023-04-21T10:16:02;99600.41;;;11.32;100.00
55540;BME280;41384;51.418;7.286;2023-04-21T10:18:29;99609.28;;;11.38;100.00
55540;BME280;41384;51.418;7.286;2023-04-21T10:21:01;99614.25;;;11.53;100.00
55540;BME280;41384;51.418;7.286;2023-04-21T10:23:46;99608.16;;;11.52;100.00
55540;BME280;41384;51.418;7.286;2023-04-21T10:36:32;99617.03;;;11.58;100.00
55540;BME280;41384;51.418;7.286;2023-04-21T10:39:02;99613.44;;;11.52;100.00
55540;BME280;41384;51.418;7.286;2023-04-21T10:41:30;99610.22;;;11.50;100.00
55540;BME280;41384;51.418;7.286;2023-04-21T10:44:11;99610.97;;;11.58;100.00
55540;BME280;41384;51.418;7.286;2023-04-21T10:46:39;99598.53;;;11.58;100.00
55540;BME280;41384;51.418;7.286;2023-04-21T10:49:24;99602.16;;;11.64;100.00
55540;BME280;41384;51.418;7.286;2023-04-21T10:54:29;99600.88;;;11.66;100.00
55540;BME280;41384;51.418;7.286;2023-04-21T10:56:57;99590.13;;;11.68;100.00
55540;BME280;41384;51.418;7.286;2023-04-21T10:59:24;99590.13;;;11.68;100.00
55540;BME280;41384;51.418;7.286;2023-04-21T11:01:50;99600.16;;;11.78;100.00
55540;BME280;41384;51.418;7.286;2023-04-21T11:04:19;99597.31;;;11.98;100.00
55540;BME280;41384;51.418;7.286;2023-04-21T11:09:32;99589.97;;;12.19;100.00
55540;BME280;41384;51.418;7.286;2023-04-21T11:11:59;99586.38;;;12.32;100.00
55540;BME280;41384;51.418;7.286;2023-04-21T11:14:26;99581.41;;;12.54;100.00
55540;BME280;41384;51.418;7.286;2023-04-21T11:16:52;99572.31;;;12.62;100.00
55540;BME280;41384;51.418;7.286;2023-04-21T11:19:17;99563.16;;;12.76;100.00
55540;BME280;41384;51.418;7.286;2023-04-21T11:21:47;99570.31;;;12.76;100.00
55540;BME280;41384;51.418;7.286;2023-04-21T11:24:12;99558.13;;;12.87;100.00
55540;BME280;41384;51.418;7.286;2023-04-21T11:26:38;99549.50;;;13.03;100.00
55540;BME280;41384;51.418;7.286;2023-04-21T11:29:05;99546.75;;;12.98;100.00
55540;BME280;41384;51.418;7.286;2023-04-21T11:31:31;99541.09;;;13.18;100.00
55540;BME280;41384;51.418;7.286;2023-04-21T11:34:00;99542.41;;;13.27;99.89
55540;BME280;41384;51.418;7.286;2023-04-21T11:36:25;99530.63;;;13.11;99.66
55540;BME280;41384;51.418;7.286;2023-04-21T11:38:52;99528.53;;;13.02;99.11
55540;BME280;41384;51.418;7.286;2023-04-21T11:41:21;99530.72;;;12.93;99.40
55540;BME280;41384;51.418;7.286;2023-04-21T11:43:47;99518.84;;;12.83;100.00
55540;BME280;41384;51.418;7.286;2023-04-21T11:46:17;99524.81;;;12.79;100.00
55540;BME280;41384;51.418;7.286;2023-04-21T11:48:43;99529.31;;;12.78;100.00
55540;BME280;41384;51.418;7.286;2023-04-21T11:51:16;99524.72;;;12.86;99.92
55540;BME280;41384;51.418;7.286;2023-04-21T11:53:42;99528.41;;;12.96;100.00
55540;BME280;41384;51.418;7.286;2023-04-21T11:56:08;99529.94;;;13.04;100.00
55540;BME280;41384;51.418;7.286;2023-04-21T11:58:35;99522.91;;;12.98;100.00
55540;BME280;41384;51.418;7.286;2023-04-21T12:01:06;99525.19;;;12.94;99.51
55540;BME280;41384;51.418;7.286;2023-04-21T12:03:32;99510.34;;;13.05;99.29
55540;BME280;41384;51.418;7.286;2023-04-21T12:05:57;99517.94;;;13.13;99.09
55540;BME280;41384;51.418;7.286;2023-04-21T12:08:23;99512.88;;;13.24;99.64
55540;BME280;41384;51.418;7.286;2023-04-21T12:10:48;99517.72;;;13.39;99.04
55540;BME280;41384;51.418;7.286;2023-04-21T12:13:21;99514.50;;;13.37;97.22
55540;BME280;41384;51.418;7.286;2023-04-21T12:15:47;99517.72;;;13.39;97.00
55540;BME280;41384;51.418;7.286;2023-04-21T12:18:13;99513.56;;;13.31;98.02
55540;BME280;41384;51.418;7.286;2023-04-21T12:20:50;99484.41;;;13.31;98.88
55540;BME280;41384;51.418;7.286;2023-04-21T12:23:17;99492.97;;;13.45;98.10
55540;BME280;41384;51.418;7.286;2023-04-21T12:25:42;99499.84;;;13.58;97.74
55540;BME280;41384;51.418;7.286;2023-04-21T12:28:08;99492.69;;;13.70;96.61
55540;BME280;41384;51.418;7.286;2023-04-21T12:30:34;99488.28;;;14.05;95.07
55540;BME280;41384;51.418;7.286;2023-04-21T12:32:59;99476.34;;;14.20;92.08
55540;BME280;41384;51.418;7.286;2023-04-21T12:35:25;99469.63;;;14.29;93.11
55540;BME280;41384;51.418;7.286;2023-04-21T12:37:50;99471.13;;;14.25;92.36
55540;BME280;41384;51.418;7.286;2023-04-21T12:40:16;99463.00;;;14.14;91.16
55540;BME280;41384;51.418;7.286;2023-04-21T12:42:41;99458.47;;;14.15;89.95
55540;BME280;41384;51.418;7.286;2023-04-21T12:45:07;99455.47;;;14.11;88.95
55540;BME280;41384;51.418;7.286;2023-04-21T12:47:33;99456.31;;;14.12;89.47
55540;BME280;41384;51.418;7.286;2023-04-21T12:49:58;99455.91;;;14.20;90.23
55540;BME280;41384;51.418;7.286;2023-04-21T12:52:23;99447.94;;;14.20;90.28
55540;BME280;41384;51.418;7.286;2023-04-21T12:54:49;99451.50;;;14.26;89.42
55540;BME280;41384;51.418;7.286;2023-04-21T12:57:14;99448.28;;;14.24;88.31
55540;BME280;41384;51.418;7.286;2023-04-21T12:59:40;99435.91;;;14.29;87.85
55540;BME280;41384;51.418;7.286;2023-04-21T13:02:05;99433.25;;;14.29;86.78
55540;BME280;41384;51.418;7.286;2023-04-21T13:04:31;99441.19;;;14.29;86.83
55540;BME280;41384;51.418;7.286;2023-04-21T13:06:56;99434.28;;;14.28;86.05
55540;BME280;41384;51.418;7.286;2023-04-21T13:09:21;99434.69;;;14.20;85.35
55540;BME280;41384;51.418;7.286;2023-04-21T13:11:46;99428.09;;;14.23;85.45